createdAt,value
2023-05-19T02:27:00.565Z,36.28
2023-05-19T02:29:28.041Z,32.70
2023-05-19T02:31:55.850Z,40.03
2023-05-19T02:34:23.257Z,36.17
2023-05-19T02:36:50.727Z,39.30
2023-05-19T02:39:18.093Z,32.65
2023-05-19T02:41:45.587Z,36.45
2023-05-19T02:44:12.872Z,43.88
2023-05-19T02:46:40.356Z,33.35
2023-05-19T02:49:07.856Z,34.42
2023-05-19T02:51:35.389Z,35.00
2023-05-19T02:54:02.653Z,41.78
2023-05-19T02:56:30.026Z,39.63
2023-05-19T02:58:58.495Z,40.03
2023-05-19T03:01:26.538Z,38.05
2023-05-19T03:03:54.087Z,39.03
2023-05-19T03:06:23.723Z,37.53
2023-05-19T03:08:51.553Z,39.28
2023-05-19T03:11:19.084Z,35.25
2023-05-19T03:13:46.529Z,41.30
2023-05-19T03:16:14.149Z,34.83
2023-05-19T03:18:42.238Z,37.08
2023-05-19T03:21:09.471Z,33.40
2023-05-19T03:23:36.797Z,36.97
2023-05-19T03:26:04.554Z,30.52
2023-05-19T03:28:31.963Z,33.10
2023-05-19T03:30:59.235Z,33.95
2023-05-19T03:33:30.565Z,33.47
2023-05-19T07:31:58.474Z,25.33
2023-05-19T07:34:26.019Z,19.40
2023-05-19T07:36:53.304Z,17.98
2023-05-19T07:39:21.081Z,13.88
2023-05-19T07:41:52.841Z,10.55
2023-05-19T07:44:20.154Z,10.98
2023-05-19T07:46:47.739Z,14.05
2023-05-19T07:49:15.112Z,11.50
2023-05-19T07:51:42.479Z,9.57
2023-05-19T07:54:10.113Z,9.10
2023-05-19T07:56:37.484Z,8.02
2023-05-19T07:59:05.098Z,12.40
2023-05-19T08:01:32.557Z,11.30
2023-05-19T08:04:00.344Z,12.75
2023-05-19T08:06:28.495Z,11.38
2023-05-19T08:08:56.055Z,11.98
2023-05-19T08:11:23.329Z,13.75
2023-05-19T08:13:51.022Z,14.77
2023-05-19T08:16:18.653Z,12.38
2023-05-19T08:18:46.211Z,14.00
2023-05-19T08:21:13.712Z,13.30
2023-05-19T08:23:41.034Z,11.43
2023-05-19T08:26:08.297Z,14.05
2023-05-19T08:28:35.826Z,13.20
2023-05-19T08:31:03.428Z,12.20
2023-05-19T08:33:30.694Z,11.82
2023-05-19T08:35:58.225Z,11.77
2023-05-19T08:38:26.706Z,14.45
2023-05-19T08:40:55.042Z,15.93
2023-05-19T17:04:35.878Z,20.08
2023-05-19T17:07:03.436Z,19.17
2023-05-19T17:09:31.412Z,28.38
2023-05-19T17:11:58.977Z,18.38
2023-05-19T17:14:26.256Z,21.67
2023-05-19T17:16:53.591Z,21.50
2023-05-19T17:19:20.925Z,19.17
2023-05-19T17:21:48.612Z,21.08
2023-05-19T17:24:16.411Z,21.52
2023-05-19T17:26:44.378Z,24.77
2023-05-19T17:29:12.211Z,25.92
2023-05-19T17:31:39.492Z,18.55
2023-05-19T17:34:07.123Z,20.15
2023-05-19T17:36:34.525Z,19.58
2023-05-19T17:39:02.093Z,21.05
2023-05-19T17:41:29.511Z,21.90
2023-05-19T17:43:56.991Z,19.90
2023-05-19T17:46:24.315Z,23.08
2023-05-19T17:48:51.669Z,22.50
2023-05-19T17:51:19.297Z,22.40
2023-05-19T17:53:47.207Z,21.88
2023-05-19T17:56:15.023Z,20.10
2023-05-19T17:58:44.233Z,20.23
2023-05-19T18:01:11.775Z,22.33
2023-05-19T18:03:39.625Z,24.20
2023-05-19T18:06:07.767Z,26.73
2023-05-19T18:08:37.038Z,27.38
2023-05-19T18:11:05.931Z,27.52
2023-05-19T18:13:33.829Z,27.40
2023-05-19T18:16:01.861Z,24.67
2023-05-19T18:23:00.268Z,29.65
2023-05-19T18:25:27.725Z,24.23
2023-05-19T18:27:56.067Z,27.70
